This is the latest recevied weather packets stored in our database for station/object SP6RGZ-1. If no packets are shown the sender has not sent any weather packets the latest 10 day(s).
| Time | Temp. | Humidity | Pressure | Rain* | Wind** | Luminosity | Snow |
|---|---|---|---|---|---|---|---|
| 1787642102 | 18.33° C | 77% | 1000.3 hPa | - | - | - | - |
| 1787641202 | 18.33° C | 76% | 1000.1 hPa | - | - | - | - |
| 1787640302 | 18.33° C | 75% | 1000.2 hPa | - | - | - | - |
| 1787639402 | 17.78° C | 79% | 1000.1 hPa | - | - | - | - |
| 1787638502 | 17.22° C | 81% | 1000.2 hPa | - | - | - | - |
| 1787637602 | 17.22° C | 80% | 1000.3 hPa | - | - | - | - |
| 1787636702 | 16.67° C | 85% | 1000.4 hPa | - | - | - | - |
| 1787635802 | 15° C | 91% | 1000.4 hPa | - | - | - | - |
| 1787634902 | 15° C | 92% | 1000.5 hPa | - | - | - | - |
| 1787634002 | 14.44° C | 94% | 1000.5 hPa | - | - | - | - |
| 1787633102 | 14.44° C | 95% | 1000.4 hPa | - | - | - | - |
| 1787632202 | 15° C | 96% | 1000.6 hPa | - | - | - | - |
| 1787611502 | 14.44° C | 98% | 1002.4 hPa | - | - | - | - |
| 1787610602 | 14.44° C | 98% | 1002.3 hPa | - | - | - | - |
| 1787609703 | 14.44° C | 98% | 1002.4 hPa | - | - | - | - |
| 1787608803 | 14.44° C | 95% | 1002.4 hPa | - | - | - | - |
| 1787607902 | 15° C | 94% | 1002.3 hPa | - | - | - | - |
| 1787607002 | 15° C | 91% | 1002.4 hPa | - | - | - | - |
| 1787606102 | 15.56° C | 88% | 1002.3 hPa | - | - | - | - |
| 1787605202 | 15.56° C | 87% | 1002.1 hPa | - | - | - | - |
| 1787604302 | 16.11° C | 86% | 1002.1 hPa | - | - | - | - |
| 1787603402 | 16.11° C | 85% | 1002 hPa | - | - | - | - |
| 1787602502 | 16.11° C | 83% | 1002 hPa | - | - | - | - |
| 1787601602 | 16.67° C | 80% | 1002.1 hPa | - | - | - | - |
| 1787600702 | 16.67° C | 80% | 1002.3 hPa | - | - | - | - |
* Rain since midnight (hover to see other rain measurements)
** Current wind speed in m/s (hover to see current wind gust speed)